Glennallen, AK (99588)

5:08 AM AKDT on March 26, 2017 (GMT -0800)
Glennallen School | | Change Station

Elev 1500 ft 62.11 °N, 145.53 °W | Updated 8 seconds ago

Clear
Clear
-0.0 °F
Feels Like 0 °F
N
0.0
Wind Variable Wind from SSW
Gusts 0.0 mph

Today
High -- | Low -- °F
--% Chance of Precip.
Yesterday
High -- | Low -- °F
Precip. -- in
Pressure 29.88 in
Visibility 10.0 miles
Clouds Few 11000 ft
Windchill 0 °F
Dew Point -7 °F
Humidity 73%
Rainfall 0.00 in
Snow Depth Not available.
7:22 AM 8:14 PM
Waning Crescent, 3% visible
METAR PAGK 261253Z AUTO 00000KT 10SM FEW110 M21/M23 A2973 RMK AO2 SLP118 T12111233 TSNO $
Pressure 29.88 in
Visibility 10.0 miles
Clouds Few 11000 ft
Windchill 0 °F
Dew Point -7 °F
Humidity 73%
Rainfall 0.00 in
Snow Depth Not available.
7:22 AM 8:14 PM
Waning Crescent, 3% visible
METAR PAGK 261253Z AUTO 00000KT 10SM FEW110 M21/M23 A2973 RMK AO2 SLP118 T12111233 TSNO $

Get Severe Weather Alerts

Thanks for signing up!

Be on the lookout for a verification email in your inbox.

You'll start receiving the daily forecast at 8 AM.

×

10-Day Weather Forecast

Almanac

Astronomy

Mar. 26, 2017 Rise Set
Actual Time
Civil Twilight
Nautical Twilight
Astronomical Twilight
Moon
Length of Visible Light
Length of Day
Tomorrow will be .
, % of the Moon is Illuminated

Today's Extremes

State Highs State Lows

Community

WunderPhotos

Upload Photos

1,962,540 photos uploaded!

WunderBlog® & News

Nearby

Air Quality

  Air Quality AQ Index Pollutant
Not available.

Snow Depth

Station Depth Elevation

Earthquake Activity

City Distance Mag. Time & Date
Minimum magnitude displayed is 2.5.

Earthquake Activity

City Distance Mag. Time & Date
Minimum magnitude displayed is 2.5.

Coastal Water Temperatures

Place Temperature

Stations

Nearby Weather Stations

Station Location Temp. Windchill Dew Point Humidity Wind Precip. Elev Updated Type
                   

Watches & Warnings

There are currently no watches in effect.